Time;durP1;ratioP1;P1;durP2;ratioP2;P2;SDS_P1;SDS_P2;PMS_P1;PMS_P2;Temp;Humidity;BMP_temperature;BMP_pressure;BME280_temperature;BME280_humidity;BME280_pressure;Samples;Min_cycle;Max_cycle;Signal;HPM_P1;HPM_P2
2022/08/10 00:00:21;;;;;;;2.83;1.23;;;22.80;52.90;;;;;;5091064;28;20457;-73
2022/08/10 00:02:47;;;;;;;;;;;22.70;52.80;;;;;;5093056;28;20465;-73
2022/08/10 00:05:13;;;;;;;3.00;1.50;;;22.70;52.80;;;;;;5090924;28;19946;-73
2022/08/10 00:07:39;;;;;;;2.05;1.45;;;22.80;52.70;;;;;;5092784;28;20070;-74
2022/08/10 00:10:05;;;;;;;5.10;1.30;;;22.70;52.60;;;;;;5091200;28;20055;-73
2022/08/10 00:12:31;;;;;;;4.13;1.30;;;22.70;52.80;;;;;;5091433;28;20500;-73
2022/08/10 00:14:58;;;;;;;1.88;1.40;;;22.60;53.00;;;;;;5092617;28;20111;-73
2022/08/10 00:17:25;;;;;;;2.67;1.15;;;22.60;53.20;;;;;;5092006;28;20105;-73
2022/08/10 00:19:50;;;;;;;1.33;1.10;;;22.60;53.30;;;;;;5092680;28;20032;-73
2022/08/10 00:22:16;;;;;;;3.38;1.65;;;22.50;53.20;;;;;;5091679;28;20381;-72
2022/08/10 00:24:42;;;;;;;3.17;1.17;;;22.50;53.20;;;;;;5091248;28;20028;-73
2022/08/10 00:27:07;;;;;;;1.70;1.30;;;22.50;53.30;;;;;;5091955;28;20032;-72
2022/08/10 00:29:33;;;;;;;2.47;1.40;;;22.40;53.30;;;;;;5092587;28;20020;-72
2022/08/10 00:31:58;;;;;;;2.85;1.23;;;22.40;53.30;;;;;;5092827;28;20046;-73
2022/08/10 00:34:25;;;;;;;2.70;1.20;;;22.40;53.40;;;;;;5090272;28;20249;-72
2022/08/10 00:36:50;;;;;;;3.83;1.40;;;22.40;53.40;;;;;;5091172;28;20494;-72
2022/08/10 00:39:16;;;;;;;1.33;1.23;;;22.40;53.50;;;;;;5091928;28;20039;-71
2022/08/10 00:41:41;;;;;;;3.55;1.50;;;22.30;53.60;;;;;;5092162;28;20116;-72
2022/08/10 00:44:07;;;;;;;2.72;1.20;;;22.30;53.60;;;;;;5090476;28;20024;-73
2022/08/10 00:46:33;;;;;;;2.65;1.60;;;22.30;53.80;;;;;;5091348;28;20028;-73
2022/08/10 00:48:58;;;;;;;2.50;1.40;;;22.20;53.80;;;;;;5093003;28;20028;-72
2022/08/10 00:51:24;;;;;;;1.65;1.52;;;22.20;53.80;;;;;;5094515;28;20024;-73
2022/08/10 00:53:49;;;;;;;3.25;1.35;;;22.20;53.80;;;;;;5095040;28;20024;-73
2022/08/10 00:56:15;;;;;;;5.28;1.38;;;22.20;54.00;;;;;;5095651;28;20062;-72
2022/08/10 00:58:41;;;;;;;1.20;1.10;;;22.20;54.10;;;;;;5096604;28;20511;-74
2022/08/10 01:01:07;;;;;;;3.53;1.23;;;22.20;54.10;;;;;;5094385;28;20031;-72
2022/08/10 01:03:33;;;;;;;3.97;1.38;;;22.10;54.10;;;;;;5095275;28;20334;-73
2022/08/10 01:06:25;;;;;;;2.00;1.48;;;22.10;54.20;;;;;;5096244;28;20472;-72
2022/08/10 01:08:57;;;;;;;2.05;1.08;;;22.10;54.10;;;;;;5094843;28;20378;-72
2022/08/10 01:11:34;;;;;;;2.03;1.27;;;22.10;54.30;;;;;;5094233;28;20032;-73
2022/08/10 01:14:31;;;;;;;3.58;1.17;;;22.10;54.40;;;;;;5095804;28;20024;-73
2022/08/10 01:17:05;;;;;;;4.68;1.50;;;22.00;55.00;;;;;;5095718;28;20393;-73
2022/08/10 01:19:59;;;;;;;2.58;1.30;;;22.00;54.50;;;;;;5095361;28;20071;-72
2022/08/10 01:22:43;;;;;;;2.85;1.40;;;22.00;54.70;;;;;;5095290;28;20024;-72
2022/08/10 01:25:14;;;;;;;2.20;1.30;;;21.90;54.70;;;;;;5094868;28;20021;-72
2022/08/10 01:27:54;;;;;;;1.95;1.10;;;21.80;54.80;;;;;;5094671;28;20098;-72
2022/08/10 01:30:23;;;;;;;2.42;1.20;;;21.80;54.90;;;;;;5093889;28;20020;-72
2022/08/10 01:33:01;;;;;;;3.00;1.30;;;21.80;54.90;;;;;;5095702;28;20082;-73
2022/08/10 01:35:49;;;;;;;3.53;1.27;;;21.80;55.10;;;;;;5093583;28;20135;-73
2022/08/10 01:38:23;;;;;;;2.50;1.38;;;21.70;55.20;;;;;;5095227;28;20412;-72
2022/08/10 01:40:53;;;;;;;3.55;1.20;;;21.70;55.30;;;;;;5095855;28;20055;-72
2022/08/10 01:43:20;;;;;;;3.08;1.13;;;21.70;55.40;;;;;;5093730;28;20028;-72
2022/08/10 01:45:51;;;;;;;2.88;1.38;;;21.60;55.50;;;;;;5095335;28;20020;-72
2022/08/10 01:48:30;;;;;;;2.85;1.25;;;21.60;55.60;;;;;;5094715;28;20024;-71
2022/08/10 01:51:14;;;;;;;2.83;1.30;;;21.60;55.80;;;;;;5095413;28;20025;-72
2022/08/10 01:53:46;;;;;;;2.20;1.50;;;21.50;55.70;;;;;;5094980;28;20032;-71
2022/08/10 01:56:14;;;;;;;1.35;1.23;;;21.50;55.80;;;;;;5094666;28;20036;-71
2022/08/10 01:58:41;;;;;;;2.05;1.17;;;21.50;55.80;;;;;;5093835;28;20036;-72
2022/08/10 02:01:09;;;;;;;3.80;1.23;;;21.50;55.90;;;;;;5094541;28;20493;-72
2022/08/10 02:03:38;;;;;;;2.30;1.20;;;21.40;56.10;;;;;;5095035;28;20020;-72
2022/08/10 02:06:06;;;;;;;2.35;1.25;;;21.40;56.20;;;;;;5095085;28;20028;-72
2022/08/10 02:08:33;;;;;;;2.53;1.15;;;21.40;56.20;;;;;;5094155;28;20077;-73
2022/08/10 02:11:01;;;;;;;3.25;1.20;;;21.40;56.20;;;;;;5093876;28;20123;-72
2022/08/10 02:13:27;;;;;;;3.58;1.20;;;21.40;56.40;;;;;;5094307;28;20095;-72
2022/08/10 02:15:55;;;;;;;2.22;1.27;;;21.40;56.40;;;;;;5093327;28;20479;-72
2022/08/10 02:18:22;;;;;;;1.63;1.13;;;21.40;56.50;;;;;;5092570;28;20034;-72
2022/08/10 02:20:50;;;;;;;1.15;1.05;;;21.30;56.50;;;;;;5093490;28;20052;-72
2022/08/10 02:23:26;;;;;;;2.33;1.30;;;21.30;56.60;;;;;;5094106;28;20518;-72
2022/08/10 02:25:54;;;;;;;2.20;1.20;;;21.30;56.70;;;;;;5093524;28;20073;-72
2022/08/10 02:28:23;;;;;;;2.58;1.10;;;21.20;56.90;;;;;;5094115;28;20445;-72
2022/08/10 02:30:51;;;;;;;2.42;1.10;;;21.20;56.90;;;;;;5094860;28;20024;-72
2022/08/10 02:33:19;;;;;;;2.67;1.00;;;21.20;57.10;;;;;;5093621;28;20357;-72
2022/08/10 02:35:47;;;;;;;2.33;1.38;;;21.20;57.20;;;;;;5094484;28;20048;-72
2022/08/10 02:38:16;;;;;;;2.38;1.60;;;21.10;57.20;;;;;;5092600;28;20162;-72
2022/08/10 02:40:47;;;;;;;1.80;1.10;;;21.10;57.20;;;;;;5093057;28;20024;-72
2022/08/10 02:43:30;;;;;;;1.35;1.20;;;21.10;57.40;;;;;;5092702;28;20028;-72
2022/08/10 02:46:04;;;;;;;2.40;1.55;;;21.00;57.50;;;;;;5093022;28;20060;-72
2022/08/10 02:48:43;;;;;;;1.48;1.27;;;20.90;57.50;;;;;;5093365;28;20467;-72
2022/08/10 02:51:17;;;;;;;1.33;1.02;;;21.00;57.90;;;;;;5093000;28;20031;-72
2022/08/10 02:53:46;;;;;;;2.63;1.30;;;20.80;58.20;;;;;;5094209;28;20032;-72
2022/08/10 02:56:37;;;;;;;1.20;1.10;;;20.80;58.40;;;;;;5094031;28;20028;-72
2022/08/10 02:59:19;;;;;;;1.63;1.40;;;20.80;58.60;;;;;;5092684;28;20546;-72
2022/08/10 03:01:48;;;;;;;2.13;1.33;;;20.70;58.60;;;;;;5093956;28;20534;-72
2022/08/10 03:04:21;;;;;;;3.03;1.50;;;20.50;58.90;;;;;;5092583;28;20136;-72
2022/08/10 03:06:59;;;;;;;5.28;1.40;;;20.50;59.10;;;;;;5092775;28;20032;-72
2022/08/10 03:09:28;;;;;;;4.75;1.23;;;20.50;59.20;;;;;;5093199;28;20031;-72
2022/08/10 03:11:55;;;;;;;2.63;1.40;;;20.50;59.20;;;;;;5093037;28;20035;-73
2022/08/10 03:14:23;;;;;;;3.10;1.25;;;20.50;59.20;;;;;;5093100;28;20028;-73
2022/08/10 03:16:50;;;;;;;3.05;1.48;;;20.60;59.30;;;;;;5093646;28;20107;-73
2022/08/10 03:19:19;;;;;;;3.95;1.20;;;20.60;59.40;;;;;;5091747;28;20032;-73
2022/08/10 03:21:46;;;;;;;1.80;1.40;;;20.60;59.60;;;;;;5093540;28;20020;-73
2022/08/10 03:24:13;;;;;;;1.95;1.40;;;20.50;59.70;;;;;;5092064;28;20038;-73
2022/08/10 03:26:39;;;;;;;2.35;1.30;;;20.50;59.90;;;;;;5092861;28;20457;-73
2022/08/10 03:29:06;;;;;;;2.65;1.50;;;20.50;59.90;;;;;;5093484;28;20051;-73
2022/08/10 03:31:33;;;;;;;2.40;1.38;;;20.50;60.10;;;;;;5091514;28;20028;-72
2022/08/10 03:34:01;;;;;;;2.58;1.50;;;20.50;60.00;;;;;;5093156;28;20021;-71
2022/08/10 03:36:27;;;;;;;4.50;1.50;;;20.50;60.20;;;;;;5092668;28;20499;-71
2022/08/10 03:38:53;;;;;;;2.17;1.25;;;20.40;60.30;;;;;;5092020;28;20035;-71
2022/08/10 03:41:28;;;;;;;3.60;1.40;;;20.40;60.40;;;;;;5092887;28;20028;-71
2022/08/10 03:43:55;;;;;;;5.65;1.52;;;20.30;60.90;;;;;;5092884;28;20047;-71
2022/08/10 03:46:23;;;;;;;3.15;1.30;;;20.20;60.90;;;;;;5092518;28;20032;-71
2022/08/10 03:48:52;;;;;;;1.60;1.50;;;20.20;61.30;;;;;;5092857;28;20384;-71
2022/08/10 03:51:20;;;;;;;3.50;1.38;;;20.10;61.30;;;;;;5092437;28;20453;-72
2022/08/10 03:53:47;;;;;;;2.05;1.70;;;20.20;61.50;;;;;;5092717;28;20392;-72
2022/08/10 03:56:13;;;;;;;2.17;1.38;;;20.10;61.70;;;;;;5092911;28;20038;-72
2022/08/10 03:58:39;;;;;;;2.20;1.50;;;20.10;61.60;;;;;;5091064;28;20032;-72
2022/08/10 04:01:06;;;;;;;2.28;1.30;;;20.20;61.40;;;;;;5091785;28;20355;-72
2022/08/10 04:03:31;;;;;;;1.92;1.23;;;20.20;61.30;;;;;;5092250;28;20521;-72
2022/08/10 04:05:57;;;;;;;3.40;1.50;;;20.30;61.30;;;;;;5092730;28;20051;-72
2022/08/10 04:08:23;;;;;;;3.65;1.85;;;20.40;61.00;;;;;;5090942;28;20024;-72
2022/08/10 04:10:48;;;;;;;2.55;1.45;;;20.40;61.10;;;;;;5092884;28;20043;-72
2022/08/10 04:13:14;;;;;;;3.33;1.50;;;20.40;61.00;;;;;;5092753;28;20473;-73
2022/08/10 04:15:40;;;;;;;6.07;1.52;;;20.40;60.90;;;;;;5090811;28;20020;-72
2022/08/10 04:18:05;;;;;;;1.92;1.50;;;20.40;60.90;;;;;;5092332;28;20427;-72
2022/08/10 04:20:39;;;;;;;3.42;1.60;;;20.40;61.00;;;;;;5090809;28;20457;-72
2022/08/10 04:23:14;;;;;;;4.38;1.50;;;20.40;61.00;;;;;;5092787;28;20035;-73
2022/08/10 04:25:40;;;;;;;2.67;1.63;;;20.40;60.90;;;;;;5091774;28;20039;-73
2022/08/10 04:28:09;;;;;;;2.50;1.30;;;20.40;61.60;;;;;;5091259;28;20033;-73
2022/08/10 04:30:36;;;;;;;3.95;1.50;;;20.40;61.00;;;;;;5091862;28;20044;-73
2022/08/10 04:33:05;;;;;;;2.35;1.60;;;20.40;61.00;;;;;;5091186;28;20024;-73
2022/08/10 04:35:32;;;;;;;5.05;1.38;;;20.40;60.90;;;;;;5090235;28;20119;-73
2022/08/10 04:37:59;;;;;;;2.88;1.42;;;20.40;60.90;;;;;;5092360;28;20027;-73
2022/08/10 04:40:25;;;;;;;2.80;1.45;;;20.40;60.90;;;;;;5091413;28;20035;-73
2022/08/10 04:42:51;;;;;;;1.52;1.40;;;20.40;60.90;;;;;;5092572;28;20365;-73
2022/08/10 04:45:16;;;;;;;1.70;1.50;;;20.50;61.00;;;;;;5091192;28;20020;-72
2022/08/10 04:47:42;;;;;;;6.78;1.55;;;20.50;61.10;;;;;;5091719;28;20081;-72
2022/08/10 04:50:08;;;;;;;2.90;1.27;;;20.40;61.20;;;;;;5092366;28;20047;-72
2022/08/10 04:52:34;;;;;;;2.90;1.40;;;20.40;61.40;;;;;;5090384;28;20092;-72
2022/08/10 04:55:00;;;;;;;4.53;1.50;;;20.40;61.60;;;;;;5091064;28;20077;-72
2022/08/10 04:57:26;;;;;;;2.40;1.42;;;20.40;61.80;;;;;;5090293;28;20036;-72
2022/08/10 04:59:51;;;;;;;2.83;1.30;;;20.40;61.90;;;;;;5092382;28;20480;-72
2022/08/10 05:02:17;;;;;;;2.00;1.27;;;20.40;62.00;;;;;;5090960;28;20024;-72
2022/08/10 05:04:42;;;;;;;1.30;1.15;;;20.30;62.10;;;;;;5090386;28;20073;-74
2022/08/10 05:07:11;;;;;;;3.15;1.20;;;20.30;62.30;;;;;;5092161;28;20028;-73
2022/08/10 05:09:38;;;;;;;3.25;1.75;;;20.30;62.00;;;;;;5090178;28;20358;-74
2022/08/10 05:12:05;;;;;;;2.85;1.38;;;20.30;62.00;;;;;;5092489;28;20035;-74
2022/08/10 05:14:30;;;;;;;1.52;1.20;;;20.30;62.30;;;;;;5091880;28;20050;-73
2022/08/10 05:16:56;;;;;;;2.00;1.40;;;20.30;62.10;;;;;;5090646;28;20540;-73
2022/08/10 05:19:22;;;;;;;2.42;1.50;;;20.30;62.00;;;;;;5091695;28;20034;-71
2022/08/10 05:21:47;;;;;;;5.97;2.50;;;20.30;61.80;;;;;;5092123;28;20476;-72
2022/08/10 05:24:13;;;;;;;4.72;1.58;;;20.40;61.60;;;;;;5091838;28;20574;-72
2022/08/10 05:26:38;;;;;;;2.25;1.42;;;20.40;61.70;;;;;;5091125;28;20042;-72
2022/08/10 05:29:04;;;;;;;4.28;1.70;;;20.40;61.50;;;;;;5091990;28;20081;-72
2022/08/10 05:31:30;;;;;;;2.30;1.02;;;20.40;61.70;;;;;;5091332;28;20020;-72
2022/08/10 05:33:56;;;;;;;5.00;1.85;;;20.40;61.50;;;;;;5091821;28;20126;-72
2022/08/10 05:36:22;;;;;;;1.30;1.20;;;20.40;61.40;;;;;;5095516;28;20119;-72
2022/08/10 05:38:48;;;;;;;4.47;1.40;;;20.50;61.40;;;;;;5093565;28;20032;-72
2022/08/10 05:41:16;;;;;;;2.10;1.50;;;20.50;61.40;;;;;;5094150;28;20082;-72
2022/08/10 05:43:42;;;;;;;1.88;1.60;;;20.50;61.30;;;;;;5094622;28;20380;-72
2022/08/10 05:46:07;;;;;;;4.43;1.40;;;20.60;61.40;;;;;;5095725;28;20077;-72
2022/08/10 05:48:38;;;;;;;2.60;1.33;;;20.60;61.40;;;;;;5094527;28;20407;-72
2022/08/10 05:51:04;;;;;;;3.30;1.48;;;20.60;61.40;;;;;;5094065;28;20028;-72
2022/08/10 05:53:32;;;;;;;2.38;1.50;;;20.60;61.40;;;;;;5093205;28;20481;-72
2022/08/10 05:55:58;;;;;;;3.60;1.55;;;20.70;61.50;;;;;;5093913;28;20028;-72
2022/08/10 05:58:24;;;;;;;10.65;1.73;;;20.70;61.60;;;;;;5093625;28;20064;-71
2022/08/10 06:00:54;;;;;;;6.32;1.65;;;20.70;61.60;;;;;;5095108;28;20430;-73
2022/08/10 06:03:30;;;;;;;4.38;1.50;;;20.70;61.70;;;;;;5093802;28;20115;-72
2022/08/10 06:05:58;;;;;;;2.60;1.40;;;20.80;62.40;;;;;;5095008;28;20024;-72
2022/08/10 06:08:30;;;;;;;2.20;1.20;;;20.90;61.20;;;;;;5094742;28;20031;-72
2022/08/10 06:10:58;;;;;;;3.15;1.30;;;21.00;60.90;;;;;;5094080;28;20031;-72
2022/08/10 06:16:11;;;;;;;2.30;1.17;;;21.10;60.50;;;;;;5094906;28;20540;-72
2022/08/10 06:18:38;;;;;;;2.97;1.33;;;21.20;61.00;;;;;;5092929;28;20028;-72
2022/08/10 06:21:05;;;;;;;2.28;1.00;;;21.30;60.10;;;;;;5094750;28;20035;-72
2022/08/10 06:23:32;;;;;;;1.25;1.15;;;21.30;60.10;;;;;;5094159;28;20028;-72
2022/08/10 06:25:58;;;;;;;3.17;1.30;;;21.40;60.10;;;;;;5093367;28;20025;-72
2022/08/10 06:28:27;;;;;;;2.80;1.40;;;21.40;60.00;;;;;;5094623;28;20032;-72
2022/08/10 06:30:53;;;;;;;3.28;1.20;;;21.50;60.00;;;;;;5093656;28;20051;-73
2022/08/10 06:33:22;;;;;;;5.05;1.23;;;21.50;59.70;;;;;;5092631;28;20457;-73
2022/08/10 06:35:52;;;;;;;1.90;1.38;;;21.60;59.80;;;;;;5090565;28;20048;-72
2022/08/10 06:38:20;;;;;;;1.80;1.20;;;21.60;59.50;;;;;;5092987;28;20032;-72
2022/08/10 06:40:47;;;;;;;2.47;1.10;;;21.70;59.30;;;;;;5092119;28;20033;-73
2022/08/10 06:43:17;;;;;;;5.55;1.40;;;21.70;59.30;;;;;;5092998;28;20059;-73
2022/08/10 06:45:52;;;;;;;1.98;1.05;;;21.70;59.20;;;;;;5092377;28;20020;-73
2022/08/10 06:48:39;;;;;;;1.35;0.90;;;21.80;59.10;;;;;;5093811;28;20039;-73
2022/08/10 06:51:10;;;;;;;1.80;1.10;;;21.80;59.60;;;;;;5092705;28;20469;-73
2022/08/10 06:53:40;;;;;;;2.22;1.27;;;21.90;58.90;;;;;;5093477;28;20150;-73
2022/08/10 06:56:11;;;;;;;2.10;1.00;;;22.00;58.90;;;;;;5093977;28;20057;-73
2022/08/10 06:58:57;;;;;;;1.77;1.17;;;22.00;58.70;;;;;;5093456;28;20020;-73
2022/08/10 07:01:28;;;;;;;2.63;1.20;;;22.10;58.70;;;;;;5093901;28;20035;-73
2022/08/10 07:04:01;;;;;;;1.77;1.10;;;22.10;58.50;;;;;;5093924;28;20024;-72
2022/08/10 07:06:28;;;;;;;2.70;1.00;;;22.20;58.50;;;;;;5092492;28;20032;-73
2022/08/10 07:08:56;;;;;;;1.23;1.10;;;22.20;58.30;;;;;;5093806;28;20469;-73
2022/08/10 07:11:22;;;;;;;1.48;1.15;;;22.30;58.10;;;;;;5092851;28;20530;-73
2022/08/10 07:13:49;;;;;;;1.73;1.00;;;22.30;58.10;;;;;;5091364;28;20051;-73
2022/08/10 07:16:16;;;;;;;3.33;0.98;;;22.30;58.00;;;;;;5092802;28;20634;-73
2022/08/10 07:18:45;;;;;;;1.23;1.10;;;22.40;57.90;;;;;;5092255;28;20106;-73
2022/08/10 07:21:12;;;;;;;3.53;1.38;;;22.40;58.00;;;;;;5093033;28;20030;-73
2022/08/10 07:23:39;;;;;;;1.75;1.20;;;22.50;57.90;;;;;;5091938;28;20024;-73
2022/08/10 07:26:07;;;;;;;2.03;1.15;;;22.50;57.70;;;;;;5092480;28;20028;-73
2022/08/10 07:28:33;;;;;;;2.08;1.27;;;22.60;57.60;;;;;;5091790;28;20462;-72
2022/08/10 07:30:59;;;;;;;3.80;1.10;;;22.60;57.50;;;;;;5092861;28;20052;-73
2022/08/10 07:33:27;;;;;;;2.55;1.58;;;22.70;57.60;;;;;;5082602;28;20103;-72
2022/08/10 07:35:55;;;;;;;3.78;1.10;;;22.70;57.30;;;;;;5091004;28;20080;-73
2022/08/10 07:38:25;;;;;;;3.42;1.15;;;22.80;57.20;;;;;;5090879;28;20039;-74
2022/08/10 07:40:53;;;;;;;2.25;0.98;;;22.90;56.90;;;;;;5073138;28;20059;-76
2022/08/10 07:43:22;;;;;;;2.92;1.42;;;22.90;56.80;;;;;;5085995;28;20036;-72
2022/08/10 07:45:49;;;;;;;1.33;1.20;;;23.00;56.70;;;;;;5078154;28;20024;-74
2022/08/10 07:48:18;;;;;;;2.20;1.20;;;23.00;56.60;;;;;;5077487;28;20051;-74
2022/08/10 07:50:45;;;;;;;2.35;0.90;;;23.10;56.50;;;;;;5085677;28;20023;-71
2022/08/10 07:53:26;;;;;;;2.55;1.33;;;23.10;56.20;;;;;;5075095;28;20116;-71
2022/08/10 07:55:53;;;;;;;2.10;1.00;;;23.20;56.30;;;;;;5080186;28;20033;-71
2022/08/10 07:58:24;;;;;;;1.13;0.80;;;23.20;56.20;;;;;;5083880;28;20067;-71
2022/08/10 08:00:52;;;;;;;2.78;1.20;;;23.30;56.10;;;;;;5076221;28;20108;-74
2022/08/10 08:03:24;;;;;;;1.13;0.90;;;23.40;56.10;;;;;;5090822;28;20513;-72
2022/08/10 08:05:51;;;;;;;1.83;1.20;;;23.40;55.90;;;;;;5089390;28;20437;-71
2022/08/10 08:08:19;;;;;;;2.15;1.20;;;23.50;55.80;;;;;;5091253;28;20044;-74
2022/08/10 08:10:46;;;;;;;1.77;0.90;;;23.50;55.60;;;;;;5091296;28;20473;-73
2022/08/10 08:13:13;;;;;;;3.83;0.82;;;23.50;55.50;;;;;;5070214;28;20159;-73
2022/08/10 08:15:41;;;;;;;2.80;1.33;;;23.60;55.60;;;;;;5077528;28;20491;-73
2022/08/10 08:18:09;;;;;;;4.03;0.98;;;23.60;55.40;;;;;;5078356;28;20032;-72
2022/08/10 08:20:35;;;;;;;3.88;1.10;;;23.60;55.30;;;;;;5084755;28;20119;-74
2022/08/10 08:23:03;;;;;;;2.83;1.02;;;23.60;55.50;;;;;;5073491;28;20029;-74
2022/08/10 08:25:29;;;;;;;4.22;1.10;;;23.60;55.40;;;;;;5084077;28;20124;-74
2022/08/10 08:27:56;;;;;;;3.38;1.17;;;23.80;55.40;;;;;;5078705;28;20115;-72
2022/08/10 08:30:23;;;;;;;1.55;1.10;;;23.90;55.30;;;;;;5076463;28;20021;-73
2022/08/10 08:32:49;;;;;;;1.42;1.02;;;24.00;55.10;;;;;;5088437;28;20477;-72
2022/08/10 08:35:17;;;;;;;3.17;1.27;;;24.00;54.70;;;;;;5086770;28;20489;-74
2022/08/10 08:37:48;;;;;;;2.80;1.10;;;24.10;54.50;;;;;;5079383;28;20028;-74
2022/08/10 08:40:32;;;;;;;4.40;1.00;;;24.10;54.50;;;;;;5091689;28;20040;-75
2022/08/10 08:43:17;;;;;;;2.50;1.02;;;24.20;54.50;;;;;;5074054;28;20453;-74
2022/08/10 08:46:07;;;;;;;1.67;0.90;;;24.20;54.10;;;;;;5082336;28;20035;-72
2022/08/10 08:48:48;;;;;;;1.65;0.80;;;24.30;54.40;;;;;;5085437;28;20048;-72
2022/08/10 08:51:53;;;;;;;9.10;1.02;;;24.30;54.10;;;;;;5075552;28;20047;-73
2022/08/10 08:54:45;;;;;;;2.25;1.00;;;24.30;53.80;;;;;;5078477;28;20028;-75
2022/08/10 08:57:41;;;;;;;2.17;1.05;;;24.40;54.00;;;;;;5087375;28;20032;-73
2022/08/10 09:00:35;;;;;;;1.45;0.95;;;24.50;54.00;;;;;;5084421;28;20470;-72
2022/08/10 09:03:09;;;;;;;1.85;1.00;;;24.50;54.10;;;;;;5081210;28;20135;-73
2022/08/10 09:06:06;;;;;;;3.38;1.00;;;24.60;53.70;;;;;;5089391;28;20173;-72
2022/08/10 09:08:52;;;;;;;3.20;1.17;;;24.70;53.50;;;;;;5090884;28;20024;-73
2022/08/10 09:11:18;;;;;;;2.50;1.10;;;24.80;53.10;;;;;;5078406;28;20035;-75
2022/08/10 09:13:53;;;;;;;2.75;0.90;;;24.90;53.20;;;;;;5093550;28;20036;-74
2022/08/10 09:16:29;;;;;;;3.83;0.90;;;24.90;52.80;;;;;;5094359;28;20031;-73
2022/08/10 09:19:23;;;;;;;2.78;1.23;;;24.90;52.90;;;;;;5089804;28;20480;-72
2022/08/10 09:22:32;;;;;;;45.25;29.45;;;25.10;52.60;;;;;;5091850;28;20027;-73
2022/08/10 09:25:13;;;;;;;17.92;11.30;;;25.10;52.20;;;;;;5054238;28;20032;-71
2022/08/10 09:27:44;;;;;;;4.40;2.33;;;25.10;52.40;;;;;;5092617;28;20036;-74
2022/08/10 09:30:11;;;;;;;;;;;25.20;52.00;;;;;;5081852;28;20059;-75
2022/08/10 09:32:48;;;;;;;3.63;1.20;;;25.40;51.30;;;;;;5088614;28;19904;-73
2022/08/10 09:35:51;;;;;;;3.47;1.13;;;25.40;50.60;;;;;;5079209;28;20055;-74
2022/08/10 09:38:56;;;;;;;1.58;1.00;;;25.50;49.70;;;;;;5080302;28;20059;-74
2022/08/10 09:41:21;;;;;;;2.55;1.10;;;25.60;49.60;;;;;;5078290;28;20081;-73
2022/08/10 09:43:55;;;;;;;5.25;1.38;;;25.70;49.80;;;;;;5084001;28;20032;-74
2022/08/10 09:46:45;;;;;;;3.92;1.25;;;25.80;49.60;;;;;;5088232;28;20020;-75
2022/08/10 09:49:36;;;;;;;3.67;1.23;;;25.90;49.30;;;;;;5075937;28;20107;-74
2022/08/10 09:52:20;;;;;;;2.05;0.90;;;26.10;49.10;;;;;;5083803;28;20077;-74
2022/08/10 09:55:16;;;;;;;5.80;1.02;;;26.10;49.30;;;;;;5089320;28;20135;-75
2022/08/10 09:58:20;;;;;;;3.65;1.15;;;26.10;49.30;;;;;;5080866;28;20035;-74
2022/08/10 10:01:07;;;;;;;2.40;0.85;;;26.30;49.10;;;;;;5077666;28;20055;-73
2022/08/10 10:03:58;;;;;;;4.30;1.30;;;26.30;48.10;;;;;;5092980;28;20028;-74
2022/08/10 10:06:53;;;;;;;2.63;0.95;;;26.30;47.90;;;;;;5094331;28;20058;-74
2022/08/10 10:09:35;;;;;;;1.80;1.10;;;26.40;47.70;;;;;;5074948;28;20371;-74
2022/08/10 10:12:25;;;;;;;3.10;0.90;;;26.50;47.90;;;;;;5089470;28;20024;-74
2022/08/10 10:15:24;;;;;;;4.88;1.00;;;26.50;47.80;;;;;;5091277;28;20020;-73
2022/08/10 10:18:12;;;;;;;2.30;1.00;;;26.60;47.50;;;;;;5091471;28;20376;-75
2022/08/10 10:20:54;;;;;;;2.97;0.90;;;26.60;47.70;;;;;;5093940;28;20049;-73
2022/08/10 10:23:26;;;;;;;5.07;0.95;;;26.60;46.70;;;;;;5077346;28;20024;-72
2022/08/10 10:26:02;;;;;;;3.58;0.75;;;26.80;46.40;;;;;;5093211;28;20107;-73
2022/08/10 10:28:37;;;;;;;3.25;1.08;;;26.90;46.30;;;;;;5078843;28;20116;-72
2022/08/10 10:31:05;;;;;;;3.42;1.30;;;27.10;46.00;;;;;;5092892;28;20043;-73
2022/08/10 10:34:05;;;;;;;3.03;1.15;;;27.10;45.20;;;;;;5092358;28;20028;-74
2022/08/10 10:36:32;;;;;;;3.63;0.90;;;27.10;45.00;;;;;;5093098;28;20105;-75
2022/08/10 10:39:00;;;;;;;0.85;0.80;;;27.10;45.30;;;;;;5090173;28;20508;-74
2022/08/10 10:41:44;;;;;;;3.95;0.82;;;27.10;45.50;;;;;;5079983;28;20054;-75
2022/08/10 10:44:33;;;;;;;2.00;0.90;;;27.20;45.60;;;;;;5087568;28;20474;-75
2022/08/10 10:47:36;;;;;;;1.27;1.00;;;27.30;45.40;;;;;;5088667;28;20039;-75
2022/08/10 10:50:09;;;;;;;1.50;1.00;;;27.20;45.50;;;;;;5088830;28;20024;-73
2022/08/10 10:53:04;;;;;;;3.25;1.00;;;27.30;45.70;;;;;;5093333;28;20070;-72
2022/08/10 10:55:41;;;;;;;1.23;0.90;;;27.40;44.80;;;;;;5079978;28;20028;-73
2022/08/10 10:58:32;;;;;;;1.38;1.10;;;27.40;44.50;;;;;;5081815;28;20474;-72
2022/08/10 11:01:02;;;;;;;1.60;0.90;;;27.50;44.70;;;;;;5073525;28;20032;-72
2022/08/10 11:03:46;;;;;;;1.20;0.75;;;27.50;44.30;;;;;;5093825;28;20103;-72
2022/08/10 11:06:40;;;;;;;1.90;1.00;;;27.60;44.30;;;;;;5092433;28;20370;-76
2022/08/10 11:09:14;;;;;;;5.95;0.98;;;27.50;44.10;;;;;;5089972;28;20105;-75
2022/08/10 11:11:44;;;;;;;1.65;1.00;;;27.60;44.20;;;;;;5090820;28;20095;-75
2022/08/10 11:14:17;;;;;;;8.73;1.50;;;27.80;44.00;;;;;;5092965;28;20384;-74
2022/08/10 11:17:12;;;;;;;4.63;0.82;;;27.80;43.50;;;;;;5074237;28;20036;-74
2022/08/10 11:20:02;;;;;;;4.38;1.40;;;27.70;43.40;;;;;;5050579;28;20059;-74
2022/08/10 11:22:47;;;;;;;2.13;0.90;;;27.80;43.20;;;;;;5078315;28;20020;-74
2022/08/10 11:25:26;;;;;;;3.60;0.80;;;27.80;42.90;;;;;;5076612;28;20292;-74
2022/08/10 11:28:11;;;;;;;3.40;1.00;;;27.80;43.40;;;;;;5090942;28;20039;-74
2022/08/10 11:30:54;;;;;;;5.22;0.77;;;28.00;42.00;;;;;;5076489;28;20025;-73
2022/08/10 11:33:36;;;;;;;3.45;0.85;;;28.10;41.60;;;;;;5084071;28;20028;-73
2022/08/10 11:36:04;;;;;;;1.20;0.70;;;28.10;41.70;;;;;;5080830;28;20079;-73
2022/08/10 11:38:36;;;;;;;1.13;0.60;;;28.20;40.90;;;;;;5087546;28;20039;-73
2022/08/10 11:41:06;;;;;;;3.40;0.82;;;28.30;41.20;;;;;;5075176;28;20032;-72
2022/08/10 11:43:38;;;;;;;2.13;1.17;;;28.30;40.50;;;;;;5084230;28;20028;-73
2022/08/10 11:46:33;;;;;;;3.53;0.75;;;28.40;41.00;;;;;;5082205;28;20023;-75
2022/08/10 11:49:08;;;;;;;2.35;0.90;;;28.50;40.30;;;;;;5089537;28;20016;-73
2022/08/10 11:51:55;;;;;;;2.80;0.98;;;28.60;40.50;;;;;;5092215;28;20023;-72
2022/08/10 11:54:30;;;;;;;3.83;0.98;;;28.70;40.30;;;;;;5076828;28;20032;-73
2022/08/10 11:56:58;;;;;;;2.03;1.10;;;28.80;40.30;;;;;;5088424;28;20048;-74
2022/08/10 12:02:14;;;;;;;1.70;0.70;;;28.90;40.80;;;;;;5092055;28;20085;-73
2022/08/10 12:04:47;;;;;;;3.20;0.90;;;29.00;39.50;;;;;;5091709;28;20608;-74
2022/08/10 12:07:14;;;;;;;1.67;0.90;;;29.10;39.50;;;;;;5075442;28;20091;-72
2022/08/10 12:09:41;;;;;;;2.90;0.80;;;29.10;39.60;;;;;;5083721;28;20055;-72
2022/08/10 12:12:07;;;;;;;1.40;0.73;;;29.10;39.50;;;;;;5081426;28;20056;-74
2022/08/10 12:14:39;;;;;;;2.38;1.38;;;29.20;40.00;;;;;;5076128;28;20427;-73
2022/08/10 12:17:22;;;;;;;1.73;0.80;;;29.40;40.00;;;;;;5087909;28;20024;-75
2022/08/10 12:20:01;;;;;;;2.25;0.90;;;29.40;39.70;;;;;;5079116;28;20138;-74
2022/08/10 12:22:33;;;;;;;1.65;0.93;;;29.40;39.50;;;;;;5079678;28;20020;-72
2022/08/10 12:25:00;;;;;;;;;;;29.50;39.40;;;;;;5089859;28;20028;-72
2022/08/10 12:27:36;;;;;;;1.73;1.33;;;29.50;38.80;;;;;;5076324;28;19930;-72
2022/08/10 12:30:16;;;;;;;6.22;1.30;;;29.50;38.80;;;;;;5079931;28;20108;-71
2022/08/10 12:32:52;;;;;;;1.50;0.88;;;29.70;39.00;;;;;;5088091;28;20024;-74
2022/08/10 12:35:57;;;;;;;3.65;0.90;;;29.90;39.20;;;;;;5069885;28;20517;-72
2022/08/10 12:38:46;;;;;;;2.13;1.30;;;30.00;38.80;;;;;;5084848;28;20032;-75
2022/08/10 12:41:20;;;;;;;5.40;2.30;;;30.00;38.60;;;;;;5075794;28;20048;-74
2022/08/10 12:43:52;;;;;;;1.70;1.60;;;30.30;38.50;;;;;;5081999;28;20029;-73
2022/08/10 12:46:41;;;;;;;4.28;1.60;;;30.40;38.10;;;;;;5088295;28;20138;-74
2022/08/10 12:49:18;;;;;;;3.28;2.10;;;30.60;38.00;;;;;;5094325;28;20073;-73
2022/08/10 12:52:10;;;;;;;2.00;1.13;;;30.80;37.80;;;;;;5094651;28;20024;-73
2022/08/10 12:54:37;;;;;;;3.67;1.25;;;31.00;37.70;;;;;;5078761;28;20534;-72
2022/08/10 12:57:33;;;;;;;2.63;1.13;;;31.20;37.20;;;;;;5089584;28;20093;-73
2022/08/10 13:00:01;;;;;;;1.70;0.80;;;31.20;36.50;;;;;;5075428;28;20082;-72
2022/08/10 13:02:37;;;;;;;1.65;0.75;;;31.30;36.70;;;;;;5092400;28;20031;-74
2022/08/10 13:05:10;;;;;;;1.27;0.70;;;31.20;36.50;;;;;;5092666;28;20469;-73
2022/08/10 13:07:39;;;;;;;1.67;0.82;;;31.00;36.50;;;;;;5093581;28;20115;-73
2022/08/10 13:10:07;;;;;;;3.45;0.95;;;31.00;37.00;;;;;;5094031;28;20258;-73
2022/08/10 13:12:37;;;;;;;3.05;0.93;;;31.10;36.70;;;;;;5094756;28;20098;-73
2022/08/10 13:15:25;;;;;;;2.35;1.00;;;31.20;36.90;;;;;;5080738;28;20071;-73
2022/08/10 13:17:53;;;;;;;2.65;0.80;;;31.40;36.70;;;;;;5091750;28;20123;-73
2022/08/10 13:20:33;;;;;;;1.67;1.20;;;31.60;36.60;;;;;;5081039;28;20021;-73
2022/08/10 13:23:04;;;;;;;6.97;3.85;;;31.90;36.20;;;;;;5079161;28;20016;-73